Time;durP1;ratioP1;P1;durP2;ratioP2;P2;SDS_P1;SDS_P2;PMS_P1;PMS_P2;Temp;Humidity;BMP_temperature;BMP_pressure;BME280_temperature;BME280_humidity;BME280_pressure;Samples;Min_cycle;Max_cycle;Signal;HPM_P1;HPM_P2
2022/08/10 00:01:52;;;;;;;;;;;;;;;16.79;100.00;102798.00;2614488;36;20359;-58
2022/08/10 00:04:22;;;;;;;;;;;;;;;16.83;100.00;102793.19;2614775;31;19946;-56
2022/08/10 00:06:53;;;;;;;;;;;;;;;16.77;100.00;102794.56;2613488;36;20038;-51
2022/08/10 00:09:21;;;;;;;;;;;;;;;16.66;100.00;102797.31;2614767;31;19957;-53
2022/08/10 00:11:49;;;;;;;;;;;;;;;16.76;100.00;102803.72;2613967;36;19987;-57
2022/08/10 00:14:17;;;;;;;;;;;;;;;16.60;100.00;102808.72;2613635;36;19981;-53
2022/08/10 00:16:45;;;;;;;;;;;;;;;16.59;100.00;102804.25;2613929;36;19953;-58
2022/08/10 00:19:13;;;;;;;;;;;;;;;16.59;100.00;102798.81;2614316;36;19958;-53
2022/08/10 00:21:42;;;;;;;;;;;;;;;16.50;100.00;102802.31;2612089;36;19953;-54
2022/08/10 00:24:12;;;;;;;;;;;;;;;16.51;100.00;102804.06;2613136;36;19950;-54
2022/08/10 00:26:40;;;;;;;;;;;;;;;16.49;100.00;102803.28;2613367;36;19950;-56
2022/08/10 00:29:08;;;;;;;;;;;;;;;16.52;100.00;102800.31;2615146;31;20451;-56
2022/08/10 00:31:36;;;;;;;;;;;;;;;16.55;100.00;102800.94;2613339;36;19967;-56
2022/08/10 00:34:04;;;;;;;;;;;;;;;16.59;100.00;102793.38;2613323;36;19950;-55
2022/08/10 00:36:32;;;;;;;;;;;;;;;16.54;100.00;102798.34;2614136;31;20448;-56
2022/08/10 00:39:00;;;;;;;;;;;;;;;16.53;100.00;102797.47;2613414;36;19947;-56
2022/08/10 00:41:31;;;;;;;;;;;;;;;16.47;100.00;102789.84;2613704;31;19989;-51
2022/08/10 00:43:59;;;;;;;;;;;;;;;16.52;100.00;102800.31;2614176;36;19971;-55
2022/08/10 00:46:27;;;;;;;;;;;;;;;16.52;100.00;102786.72;2613866;31;19951;-56
2022/08/10 00:48:55;;;;;;;;;;;;;;;16.49;100.00;102795.13;2613736;36;19974;-53
2022/08/10 00:51:24;;;;;;;;;;;;;;;16.45;100.00;102784.53;2614421;36;19946;-55
2022/08/10 00:53:52;;;;;;;;;;;;;;;16.42;100.00;102781.22;2614517;36;19950;-57
2022/08/10 00:56:20;;;;;;;;;;;;;;;16.36;100.00;102779.88;2614686;36;19977;-54
2022/08/10 00:58:50;;;;;;;;;;;;;;;16.33;100.00;102785.56;2614303;36;19958;-55
2022/08/10 01:01:19;;;;;;;;;;;;;;;16.33;100.00;102791.00;2612569;36;19954;-57
2022/08/10 01:03:47;;;;;;;;;;;;;;;16.25;100.00;102780.75;2613090;36;19947;-56
2022/08/10 01:06:20;;;;;;;;;;;;;;;16.19;100.00;102789.41;2613293;31;19981;-56
2022/08/10 01:08:49;;;;;;;;;;;;;;;16.18;100.00;102781.38;2611465;36;19950;-57
2022/08/10 01:11:20;;;;;;;;;;;;;;;16.24;100.00;102786.31;2614000;36;20344;-57
2022/08/10 01:13:56;;;;;;;;;;;;;;;16.24;100.00;102784.47;2614447;36;19985;-54
2022/08/10 01:16:27;;;;;;;;;;;;;;;16.21;100.00;102778.41;2614124;36;19974;-57
2022/08/10 01:18:57;;;;;;;;;;;;;;;16.14;100.00;102779.91;2613243;36;19989;-56
2022/08/10 01:21:32;;;;;;;;;;;;;;;16.07;100.00;102774.97;2613827;36;19950;-55
2022/08/10 01:24:10;;;;;;;;;;;;;;;15.96;100.00;102779.53;2613168;31;19958;-56
2022/08/10 01:26:53;;;;;;;;;;;;;;;16.06;100.00;102778.69;2613685;36;19954;-56
2022/08/10 01:29:40;;;;;;;;;;;;;;;16.05;100.00;102765.25;2612995;47;19958;-56
2022/08/10 01:32:09;;;;;;;;;;;;;;;15.99;100.00;102771.16;2614904;36;20325;-51
2022/08/10 01:34:40;;;;;;;;;;;;;;;16.01;100.00;102770.03;2614302;31;20545;-57
2022/08/10 01:37:09;;;;;;;;;;;;;;;15.86;100.00;102769.44;2612881;36;19950;-57
2022/08/10 01:39:40;;;;;;;;;;;;;;;15.79;100.00;102764.63;2615187;36;19950;-57
2022/08/10 01:42:08;;;;;;;;;;;;;;;15.75;100.00;102763.97;2614036;36;19957;-54
2022/08/10 01:44:42;;;;;;;;;;;;;;;15.71;100.00;102757.94;2614708;36;19954;-54
2022/08/10 01:50:00;;;;;;;;;;;;;;;15.75;100.00;102762.13;2614177;36;20399;-55
2022/08/10 01:52:31;;;;;;;;;;;;;;;15.64;100.00;102759.41;2613291;31;20023;-53
2022/08/10 01:55:00;;;;;;;;;;;;;;;15.56;100.00;102760.03;2613012;36;19982;-53
2022/08/10 01:57:30;;;;;;;;;;;;;;;15.62;100.00;102761.41;2614928;36;20427;-56
2022/08/10 02:00:03;;;;;;;;;;;;;;;15.66;100.00;102764.72;2614923;36;19973;-53
2022/08/10 02:02:31;;;;;;;;;;;;;;;15.71;100.00;102760.66;2613330;36;19954;-53
2022/08/10 02:05:01;;;;;;;;;;;;;;;15.66;100.00;102760.13;2614027;36;19947;-55
2022/08/10 02:07:31;;;;;;;;;;;;;;;15.65;100.00;102760.25;2610466;36;19950;-53
2022/08/10 02:10:00;;;;;;;;;;;;;;;15.57;100.00;102766.31;2611148;36;20093;-55
2022/08/10 02:12:31;;;;;;;;;;;;;;;15.67;100.00;102755.59;2610039;36;19958;-58
2022/08/10 02:15:03;;;;;;;;;;;;;;;15.62;100.00;102753.25;2610935;36;19951;-54
2022/08/10 02:17:34;;;;;;;;;;;;;;;15.53;100.00;102763.00;2611367;36;20355;-55
2022/08/10 02:20:04;;;;;;;;;;;;;;;15.54;100.00;102761.13;2610890;36;19977;-62
2022/08/10 02:22:33;;;;;;;;;;;;;;;15.49;100.00;102758.78;2612720;31;20436;-54
2022/08/10 02:25:01;;;;;;;;;;;;;;;15.49;100.00;102760.63;2611945;36;19947;-54
2022/08/10 02:27:31;;;;;;;;;;;;;;;15.48;100.00;102758.91;2612897;36;19950;-50
2022/08/10 02:30:02;;;;;;;;;;;;;;;15.50;100.00;102759.66;2611408;36;19954;-54
2022/08/10 02:32:31;;;;;;;;;;;;;;;15.50;100.00;102763.25;2610554;36;19950;-54
2022/08/10 02:35:02;;;;;;;;;;;;;;;15.51;100.00;102766.81;2610695;36;19950;-57
2022/08/10 02:37:32;;;;;;;;;;;;;;;15.48;100.00;102761.63;2610455;36;19954;-55
2022/08/10 02:40:00;;;;;;;;;;;;;;;15.46;100.00;102760.88;2611149;31;19947;-58
2022/08/10 02:42:32;;;;;;;;;;;;;;;15.51;100.00;102777.66;2611110;36;19946;-54
2022/08/10 02:45:05;;;;;;;;;;;;;;;15.45;100.00;102768.16;2609599;36;19966;-54
2022/08/10 02:47:34;;;;;;;;;;;;;;;15.46;100.00;102767.19;2610182;36;20057;-52
2022/08/10 02:50:04;;;;;;;;;;;;;;;15.44;100.00;102762.84;2611420;36;19965;-55
2022/08/10 02:52:37;;;;;;;;;;;;;;;15.44;100.00;102758.28;2614559;36;19958;-53
2022/08/10 02:55:09;;;;;;;;;;;;;;;15.56;100.00;102754.59;2611506;36;20392;-55
2022/08/10 02:57:39;;;;;;;;;;;;;;;15.55;100.00;102749.31;2610899;36;19946;-54
2022/08/10 03:00:11;;;;;;;;;;;;;;;15.49;100.00;102763.34;2611056;36;19954;-55
2022/08/10 03:02:40;;;;;;;;;;;;;;;15.39;100.00;102755.94;2611195;36;20456;-54
2022/08/10 03:05:10;;;;;;;;;;;;;;;15.34;100.00;102752.72;2611918;36;19947;-53
2022/08/10 03:07:41;;;;;;;;;;;;;;;15.36;100.00;102761.59;2610456;36;20033;-55
2022/08/10 03:10:10;;;;;;;;;;;;;;;15.37;100.00;102749.78;2613084;36;20328;-56
2022/08/10 03:12:38;;;;;;;;;;;;;;;15.39;100.00;102753.22;2610404;36;19988;-53
2022/08/10 03:15:08;;;;;;;;;;;;;;;15.33;100.00;102752.84;2611370;36;20747;-56
2022/08/10 03:17:39;;;;;;;;;;;;;;;15.36;100.00;102747.19;2612128;36;19953;-55
2022/08/10 03:20:08;;;;;;;;;;;;;;;15.32;100.00;102743.84;2611807;36;19958;-56
2022/08/10 03:22:37;;;;;;;;;;;;;;;15.24;100.00;102746.31;2613064;36;20070;-56
2022/08/10 03:25:05;;;;;;;;;;;;;;;15.20;100.00;102742.94;2612779;36;19958;-55
2022/08/10 03:27:33;;;;;;;;;;;;;;;15.23;100.00;102741.84;2610052;36;19954;-53
2022/08/10 03:30:02;;;;;;;;;;;;;;;15.22;100.00;102740.13;2610335;36;19951;-56
2022/08/10 03:32:32;;;;;;;;;;;;;;;15.20;100.00;102742.94;2611711;36;20332;-54
2022/08/10 03:35:03;;;;;;;;;;;;;;;15.27;100.00;102740.63;2611718;36;19958;-55
2022/08/10 03:37:31;;;;;;;;;;;;;;;15.21;100.00;102738.41;2614056;36;19969;-56
2022/08/10 03:39:59;;;;;;;;;;;;;;;15.19;100.00;102735.81;2613237;36;19971;-51
2022/08/10 03:42:28;;;;;;;;;;;;;;;15.19;100.00;102729.50;2614296;31;20412;-58
2022/08/10 03:44:57;;;;;;;;;;;;;;;15.05;100.00;102739.59;2611179;36;19955;-56
2022/08/10 03:47:26;;;;;;;;;;;;;;;15.11;100.00;102727.41;2611010;31;22179;-56
2022/08/10 03:49:55;;;;;;;;;;;;;;;15.11;100.00;102731.97;2613331;36;19947;-53
2022/08/10 03:52:26;;;;;;;;;;;;;;;15.08;100.00;102735.78;2614349;31;19958;-53
2022/08/10 03:54:55;;;;;;;;;;;;;;;14.89;100.00;102731.78;2614451;36;19997;-57
2022/08/10 03:57:25;;;;;;;;;;;;;;;14.94;100.00;102726.00;2614725;36;19977;-54
2022/08/10 03:59:53;;;;;;;;;;;;;;;14.93;100.00;102727.00;2614852;36;19938;-55
2022/08/10 04:02:21;;;;;;;;;;;;;;;14.94;100.00;102728.72;2614636;36;19996;-55
2022/08/10 04:04:49;;;;;;;;;;;;;;;14.89;100.00;102722.78;2613808;36;19978;-55
2022/08/10 04:07:17;;;;;;;;;;;;;;;14.82;100.00;102726.97;2615195;36;19946;-52
2022/08/10 04:09:48;;;;;;;;;;;;;;;14.86;100.00;102734.72;2614836;31;20436;-57
2022/08/10 04:12:16;;;;;;;;;;;;;;;14.78;100.00;102733.59;2615360;31;19950;-50
2022/08/10 04:14:44;;;;;;;;;;;;;;;14.82;100.00;102726.97;2615027;36;19951;-57
2022/08/10 04:17:13;;;;;;;;;;;;;;;14.87;100.00;102725.63;2614606;36;19938;-55
2022/08/10 04:19:43;;;;;;;;;;;;;;;14.87;100.00;102731.03;2613968;36;19950;-55
2022/08/10 04:22:14;;;;;;;;;;;;;;;14.78;100.00;102739.91;2614818;36;19958;-53
2022/08/10 04:24:43;;;;;;;;;;;;;;;14.79;100.00;102738.03;2614678;36;19951;-55
2022/08/10 04:27:14;;;;;;;;;;;;;;;14.85;100.00;102732.13;2615582;36;19965;-55
2022/08/10 04:29:42;;;;;;;;;;;;;;;14.87;100.00;102727.47;2614909;36;19953;-55
2022/08/10 04:32:12;;;;;;;;;;;;;;;14.90;100.00;102729.97;2614916;36;19985;-52
2022/08/10 04:34:42;;;;;;;;;;;;;;;14.87;100.00;102725.63;2615303;36;19947;-54
2022/08/10 04:37:15;;;;;;;;;;;;;;;14.99;100.00;102734.66;2615833;36;19955;-54
2022/08/10 04:39:43;;;;;;;;;;;;;;;14.97;100.00;102731.22;2615617;36;19958;-54
2022/08/10 04:42:14;;;;;;;;;;;;;;;15.02;100.00;102734.41;2614815;36;19962;-56
2022/08/10 04:44:44;;;;;;;;;;;;;;;15.00;100.00;102722.84;2615244;36;19950;-57
2022/08/10 04:47:12;;;;;;;;;;;;;;;14.95;100.00;102716.03;2614614;36;19954;-54
2022/08/10 04:49:40;;;;;;;;;;;;;;;14.97;100.00;102722.19;2614682;36;19953;-53
2022/08/10 04:52:08;;;;;;;;;;;;;;;15.04;100.00;102726.16;2614641;36;20001;-57
2022/08/10 04:54:36;;;;;;;;;;;;;;;15.01;100.00;102721.81;2615341;36;19951;-55
2022/08/10 04:57:04;;;;;;;;;;;;;;;14.98;100.00;102722.06;2614369;36;19977;-56
2022/08/10 04:59:35;;;;;;;;;;;;;;;15.00;100.00;102724.66;2615177;36;19947;-56
2022/08/10 05:02:03;;;;;;;;;;;;;;;15.04;100.00;102726.16;2614883;36;19959;-58
2022/08/10 05:04:31;;;;;;;;;;;;;;;14.96;100.00;102724.06;2615033;36;19969;-56
2022/08/10 05:06:59;;;;;;;;;;;;;;;14.97;100.00;102731.22;2615449;36;20424;-54
2022/08/10 05:09:27;;;;;;;;;;;;;;;15.08;100.00;102727.66;2615505;36;20038;-54
2022/08/10 05:11:55;;;;;;;;;;;;;;;15.25;100.00;102729.03;2615682;31;20451;-54
2022/08/10 05:14:23;;;;;;;;;;;;;;;15.26;100.00;102725.34;2615273;36;19942;-57
2022/08/10 05:16:54;;;;;;;;;;;;;;;15.32;100.00;102729.41;2614900;36;19950;-54
2022/08/10 05:19:22;;;;;;;;;;;;;;;15.40;100.00;102726.97;2615643;36;19958;-54
2022/08/10 05:21:50;;;;;;;;;;;;;;;15.45;100.00;102732.03;2615048;36;19950;-55
2022/08/10 05:24:18;;;;;;;;;;;;;;;15.48;100.00;102731.78;2615350;36;19951;-55
2022/08/10 05:26:46;;;;;;;;;;;;;;;15.53;100.00;102732.25;2615025;36;19965;-58
2022/08/10 05:29:15;;;;;;;;;;;;;;;15.68;100.00;102739.19;2614284;36;19950;-56
2022/08/10 05:31:43;;;;;;;;;;;;;;;15.65;100.00;102742.16;2612705;36;20054;-55
2022/08/10 05:34:14;;;;;;;;;;;;;;;15.52;100.00;102741.41;2612511;36;19962;-55
2022/08/10 05:36:43;;;;;;;;;;;;;;;15.60;100.00;102744.34;2611028;36;19950;-56
2022/08/10 05:39:11;;;;;;;;;;;;;;;15.58;100.00;102743.63;2612313;36;20383;-51
2022/08/10 05:41:40;;;;;;;;;;;;;;;15.63;100.00;102749.53;2613790;31;19947;-57
2022/08/10 05:44:08;;;;;;;;;;;;;;;15.61;100.00;102748.81;2611086;36;19951;-50
2022/08/10 05:46:36;;;;;;;;;;;;;;;15.79;100.00;102745.63;2610238;36;19950;-54
2022/08/10 05:49:04;;;;;;;;;;;;;;;15.81;100.00;102754.50;2610812;36;19946;-56
2022/08/10 05:51:35;;;;;;;;;;;;;;;15.87;100.00;102756.72;2611490;36;19991;-55
2022/08/10 05:54:03;;;;;;;;;;;;;;;15.82;100.00;102748.09;2610711;36;19985;-56
2022/08/10 05:56:32;;;;;;;;;;;;;;;15.86;100.00;102755.88;2609966;36;19985;-57
2022/08/10 05:59:00;;;;;;;;;;;;;;;15.94;100.00;102750.69;2611459;36;19950;-56
2022/08/10 06:01:29;;;;;;;;;;;;;;;16.06;100.00;102756.97;2610064;36;20452;-57
2022/08/10 06:03:59;;;;;;;;;;;;;;;16.06;100.00;102750.66;2610996;36;20362;-57
2022/08/10 06:06:28;;;;;;;;;;;;;;;16.19;100.00;102755.94;2610445;36;19946;-54
2022/08/10 06:09:00;;;;;;;;;;;;;;;16.28;100.00;102749.72;2611342;36;20428;-55
2022/08/10 06:11:30;;;;;;;;;;;;;;;16.36;100.00;102741.81;2613931;36;20392;-55
2022/08/10 06:16:41;;;;;;;;;;;;;;;16.39;100.00;102744.28;2611697;36;20037;-57
2022/08/10 06:19:09;;;;;;;;;;;;;;;16.28;100.00;102744.31;2610482;36;19953;-53
2022/08/10 06:21:38;;;;;;;;;;;;;;;16.33;100.00;102735.75;2610676;31;19950;-56
2022/08/10 06:24:10;;;;;;;;;;;;;;;16.39;100.00;102741.56;2612829;36;19961;-54
2022/08/10 06:26:38;;;;;;;;;;;;;;;16.50;100.00;102737.06;2614032;36;20041;-52
2022/08/10 06:29:08;;;;;;;;;;;;;;;16.57;100.00;102739.16;2614699;31;20428;-54
2022/08/10 06:31:38;;;;;;;;;;;;;;;16.75;100.00;102742.16;2614144;36;19938;-55
2022/08/10 06:34:07;;;;;;;;;;;;;;;16.84;100.00;102726.91;2612861;36;19939;-54
2022/08/10 06:36:36;;;;;;;;;;;;;;;17.00;100.00;102737.38;2600928;36;19981;-56
2022/08/10 06:39:05;;;;;;;;;;;;;;;17.07;100.00;102738.56;2611500;36;19992;-56
2022/08/10 06:41:37;;;;;;;;;;;;;;;17.25;100.00;102735.22;2610310;36;20002;-57
2022/08/10 06:44:08;;;;;;;;;;;;;;;17.44;100.00;102738.06;2610506;31;19954;-56
2022/08/10 06:46:39;;;;;;;;;;;;;;;17.61;100.00;102739.28;2609467;36;20002;-54
2022/08/10 06:49:08;;;;;;;;;;;;;;;17.66;100.00;102738.88;2610395;36;19981;-56
2022/08/10 06:51:37;;;;;;;;;;;;;;;17.96;100.00;102742.59;2611280;31;19946;-58
2022/08/10 06:54:07;;;;;;;;;;;;;;;18.02;100.00;102736.59;2611135;36;20013;-57
2022/08/10 06:56:45;;;;;;;;;;;;;;;18.52;100.00;102732.94;2609588;36;22725;-54
2022/08/10 06:59:18;;;;;;;;;;;;;;;18.67;100.00;102731.50;2610310;36;20416;-55
2022/08/10 07:01:49;;;;;;;;;;;;;;;18.79;100.00;102732.22;2610204;36;19957;-53
2022/08/10 07:04:23;;;;;;;;;;;;;;;19.07;100.00;102732.38;2610141;36;19954;-56
2022/08/10 07:06:51;;;;;;;;;;;;;;;19.25;100.00;102725.13;2610585;36;20004;-56
2022/08/10 07:09:21;;;;;;;;;;;;;;;19.56;100.00;102727.59;2611222;36;19957;-57
2022/08/10 07:11:52;;;;;;;;;;;;;;;19.71;100.00;102729.84;2610799;36;21225;-56
2022/08/10 07:14:21;;;;;;;;;;;;;;;19.68;100.00;102730.16;2610847;36;19946;-54
2022/08/10 07:16:49;;;;;;;;;;;;;;;19.89;100.00;102728.06;2610291;36;19954;-57
2022/08/10 07:19:18;;;;;;;;;;;;;;;20.08;100.00;102720.75;2611175;36;19946;-54
2022/08/10 07:21:47;;;;;;;;;;;;;;;20.02;100.00;102732.31;2610631;36;19974;-54
2022/08/10 07:24:17;;;;;;;;;;;;;;;20.29;100.00;102729.53;2611099;36;19955;-56
2022/08/10 07:26:47;;;;;;;;;;;;;;;20.40;100.00;102730.34;2610167;36;19962;-57
2022/08/10 07:29:20;;;;;;;;;;;;;;;20.31;100.00;102722.03;2611041;36;20360;-56
2022/08/10 07:31:49;;;;;;;;;;;;;;;20.33;100.00;102718.28;2610025;36;20351;-58
2022/08/10 07:34:20;;;;;;;;;;;;;;;20.58;100.00;102714.78;2609871;36;19950;-57
2022/08/10 07:36:51;;;;;;;;;;;;;;;20.76;100.00;102719.41;2603565;36;19954;-55
2022/08/10 07:39:21;;;;;;;;;;;;;;;21.09;100.00;102716.94;2613632;36;19950;-54
2022/08/10 07:41:50;;;;;;;;;;;;;;;21.08;100.00;102712.47;2604799;36;20419;-56
2022/08/10 07:44:23;;;;;;;;;;;;;;;21.49;100.00;102720.94;2609544;36;19950;-56
2022/08/10 07:46:53;;;;;;;;;;;;;;;21.47;100.00;102728.47;2609676;36;20471;-57
2022/08/10 07:49:23;;;;;;;;;;;;;;;21.17;100.00;102714.22;2611188;36;20364;-56
2022/08/10 07:51:52;;;;;;;;;;;;;;;21.45;100.00;102720.41;2612903;31;19988;-55
2022/08/10 07:54:22;;;;;;;;;;;;;;;21.79;100.00;102721.44;2612565;36;20054;-53
2022/08/10 07:56:51;;;;;;;;;;;;;;;21.73;100.00;102717.50;2612265;31;19974;-56
2022/08/10 07:59:25;;;;;;;;;;;;;;;21.94;100.00;102718.94;2612735;36;19942;-58
2022/08/10 08:01:54;;;;;;;;;;;;;;;22.38;100.00;102719.56;2613759;36;19946;-55
2022/08/10 08:04:24;;;;;;;;;;;;;;;22.54;100.00;102720.59;2610947;36;19955;-57
2022/08/10 08:06:53;;;;;;;;;;;;;;;22.61;100.00;102721.66;2612390;36;19947;-56
2022/08/10 08:09:22;;;;;;;;;;;;;;;22.50;100.00;102731.06;2612275;36;19957;-56
2022/08/10 08:11:51;;;;;;;;;;;;;;;22.44;100.00;102725.41;2612694;36;19954;-56
2022/08/10 08:14:21;;;;;;;;;;;;;;;22.38;100.00;102722.31;2613673;36;20094;-58
2022/08/10 08:16:54;;;;;;;;;;;;;;;22.55;100.00;102727.81;2614384;36;21198;-58
2022/08/10 08:19:22;;;;;;;;;;;;;;;22.79;100.00;102717.88;2615699;36;20343;-56
2022/08/10 08:21:51;;;;;;;;;;;;;;;22.81;100.00;102718.56;2614856;31;19947;-56
2022/08/10 08:24:20;;;;;;;;;;;;;;;22.45;100.00;102722.47;2616157;36;19950;-54
2022/08/10 08:26:49;;;;;;;;;;;;;;;22.91;100.00;102722.00;2615259;36;19950;-57
2022/08/10 08:29:18;;;;;;;;;;;;;;;23.09;100.00;102705.31;2616856;31;20448;-56
2022/08/10 08:31:47;;;;;;;;;;;;;;;23.07;100.00;102711.00;2614782;36;19962;-56
2022/08/10 08:34:19;;;;;;;;;;;;;;;23.12;100.00;102709.66;2617202;31;19946;-56
2022/08/10 08:36:48;;;;;;;;;;;;;;;23.32;100.00;102713.72;2615847;36;20317;-58
2022/08/10 08:39:16;;;;;;;;;;;;;;;23.17;100.00;102715.47;2615240;36;19958;-54
2022/08/10 08:41:53;;;;;;;;;;;;;;;23.20;100.00;102720.59;2611030;36;20526;-56
2022/08/10 08:44:25;;;;;;;;;;;;;;;23.89;100.00;102718.16;2614291;31;19993;-55
2022/08/10 08:47:00;;;;;;;;;;;;;;;23.58;100.00;102712.59;2608891;36;19955;-57
2022/08/10 08:49:46;;;;;;;;;;;;;;;23.30;100.00;102718.53;2614026;36;19951;-57
2022/08/10 08:52:29;;;;;;;;;;;;;;;23.74;100.00;102707.03;2613768;36;19938;-58
2022/08/10 08:55:01;;;;;;;;;;;;;;;23.98;100.00;102707.97;2612580;36;19958;-56
2022/08/10 08:57:33;;;;;;;;;;;;;;;24.11;100.00;102712.88;2614705;36;20055;-56
2022/08/10 09:00:05;;;;;;;;;;;;;;;23.92;100.00;102708.69;2614326;36;19954;-55
2022/08/10 09:02:40;;;;;;;;;;;;;;;23.82;100.00;102702.53;2614834;36;19950;-55
2022/08/10 09:05:17;;;;;;;;;;;;;;;23.79;100.00;102704.59;2614261;31;19989;-57
2022/08/10 09:08:00;;;;;;;;;;;;;;;24.06;100.00;102705.19;2615460;36;19950;-55
2022/08/10 09:10:37;;;;;;;;;;;;;;;24.31;100.00;102694.03;2611981;36;19951;-57
2022/08/10 09:13:09;;;;;;;;;;;;;;;24.69;100.00;102696.84;2613641;36;19946;-56
2022/08/10 09:15:38;;;;;;;;;;;;;;;24.80;100.00;102690.88;2614518;36;19977;-57
2022/08/10 09:18:10;;;;;;;;;;;;;;;24.76;100.00;102694.19;2631590;36;20426;-55
2022/08/10 09:20:40;;;;;;;;;;;;;;;24.82;100.00;102694.31;2613784;36;20036;-58
2022/08/10 09:23:13;;;;;;;;;;;;;;;24.86;100.00;102688.44;2613858;36;20428;-57
2022/08/10 09:25:46;;;;;;;;;;;;;;;24.89;100.00;102693.56;2614441;36;19946;-57
2022/08/10 09:28:19;;;;;;;;;;;;;;;24.76;100.00;102684.03;2613478;36;19969;-57
2022/08/10 09:30:50;;;;;;;;;;;;;;;24.90;100.00;102689.78;2614052;36;19954;-58
2022/08/10 09:33:23;;;;;;;;;;;;;;;24.67;100.00;102685.16;2614284;36;19954;-58
2022/08/10 09:35:55;;;;;;;;;;;;;;;25.08;100.00;102676.47;2613672;36;19957;-55
2022/08/10 09:38:29;;;;;;;;;;;;;;;25.27;100.00;102674.22;2613827;36;20336;-57
2022/08/10 09:41:05;;;;;;;;;;;;;;;25.31;100.00;102675.59;2614146;36;19951;-55
2022/08/10 09:43:44;;;;;;;;;;;;;;;25.45;100.00;102679.38;2613561;36;19946;-55
2022/08/10 09:46:17;;;;;;;;;;;;;;;25.39;100.00;102672.72;2613853;36;19939;-57
2022/08/10 09:48:49;;;;;;;;;;;;;;;25.83;100.00;102671.78;2606506;36;19954;-58
2022/08/10 09:51:26;;;;;;;;;;;;;;;25.76;100.00;102673.59;2612362;36;19954;-56
2022/08/10 09:53:59;;;;;;;;;;;;;;;25.72;100.00;102672.28;2604123;36;20001;-57
2022/08/10 09:56:30;;;;;;;;;;;;;;;26.17;100.00;102664.75;2611486;36;19950;-56
2022/08/10 09:59:04;;;;;;;;;;;;;;;26.79;100.00;102656.84;2613690;36;20359;-58
2022/08/10 10:01:38;;;;;;;;;;;;;;;26.43;100.00;102649.53;2612679;36;19962;-58
2022/08/10 10:04:11;;;;;;;;;;;;;;;26.29;100.00;102656.81;2612792;36;19958;-57
2022/08/10 10:06:41;;;;;;;;;;;;;;;26.65;100.00;102647.59;2613592;36;20074;-57
2022/08/10 10:09:13;;;;;;;;;;;;;;;26.36;100.00;102646.69;2611971;36;20420;-56
2022/08/10 10:11:51;;;;;;;;;;;;;;;26.53;100.00;102641.75;2610697;36;19982;-59
2022/08/10 10:14:25;;;;;;;;;;;;;;;26.85;100.00;102633.09;2614333;36;20343;-57
2022/08/10 10:17:02;;;;;;;;;;;;;;;26.92;98.67;102632.06;2613100;36;19950;-57
2022/08/10 10:19:45;;;;;;;;;;;;;;;27.18;100.00;102626.91;2614245;36;19958;-63
2022/08/10 10:22:30;;;;;;;;;;;;;;;27.40;95.97;102634.06;2611490;36;19954;-57
2022/08/10 10:25:01;;;;;;;;;;;;;;;27.41;88.17;102621.09;2613599;36;19958;-57
2022/08/10 10:27:39;;;;;;;;;;;;;;;27.35;87.62;102620.00;2613256;36;19946;-57
2022/08/10 10:30:09;;;;;;;;;;;;;;;27.49;81.91;102611.75;2613935;31;20363;-58
2022/08/10 10:32:43;;;;;;;;;;;;;;;27.54;89.06;102617.53;2612094;31;19977;-57
2022/08/10 10:35:17;;;;;;;;;;;;;;;27.68;82.79;102610.13;2611497;36;19946;-56
2022/08/10 10:37:47;;;;;;;;;;;;;;;27.63;76.04;102613.50;2612808;31;20444;-58
2022/08/10 10:40:16;;;;;;;;;;;;;;;27.60;73.81;102606.47;2612981;36;19946;-57
2022/08/10 10:42:51;;;;;;;;;;;;;;;27.66;74.38;102610.31;2613264;36;19954;-56
2022/08/10 10:45:20;;;;;;;;;;;;;;;27.64;73.66;102597.78;2611278;36;20364;-57
2022/08/10 10:48:00;;;;;;;;;;;;;;;27.76;71.64;102601.66;2610783;36;19977;-58
2022/08/10 10:50:32;;;;;;;;;;;;;;;27.99;80.00;102589.34;2613800;36;19954;-57
2022/08/10 10:53:07;;;;;;;;;;;;;;;28.23;73.95;102599.81;2605942;36;21187;-57
2022/08/10 10:55:38;;;;;;;;;;;;;;;28.39;66.59;102592.16;2612561;31;20378;-57
2022/08/10 10:58:16;;;;;;;;;;;;;;;28.28;68.17;102583.44;2612960;36;20242;-57
2022/08/10 11:00:47;;;;;;;;;;;;;;;28.18;65.19;102576.59;2604290;36;19958;-57
2022/08/10 11:03:30;;;;;;;;;;;;;;;28.01;71.45;102579.78;2611926;36;20010;-57
2022/08/10 11:06:04;;;;;;;;;;;;;;;28.26;68.72;102582.78;2614078;36;20648;-57
2022/08/10 11:08:37;;;;;;;;;;;;;;;28.57;65.13;102570.19;2612123;36;20019;-58
2022/08/10 11:11:08;;;;;;;;;;;;;;;28.82;62.39;102566.75;2611040;36;19943;-57
2022/08/10 11:13:41;;;;;;;;;;;;;;;28.71;65.16;102561.88;2610464;36;19970;-58
2022/08/10 11:16:12;;;;;;;;;;;;;;;28.41;60.98;102559.56;2611808;36;19950;-55
2022/08/10 11:18:55;;;;;;;;;;;;;;;28.70;61.87;102568.50;2611846;36;19946;-56
2022/08/10 11:21:26;;;;;;;;;;;;;;;28.66;60.04;102557.00;2613589;36;19939;-57
2022/08/10 11:23:59;;;;;;;;;;;;;;;28.49;59.03;102556.56;2613227;36;19950;-58
2022/08/10 11:26:30;;;;;;;;;;;;;;;28.90;56.57;102552.69;2612462;36;20324;-56
2022/08/10 11:29:04;;;;;;;;;;;;;;;29.13;58.32;102557.69;2613473;31;19951;-57
2022/08/10 11:31:36;;;;;;;;;;;;;;;29.27;55.19;102558.53;2613976;36;20432;-57
2022/08/10 11:34:08;;;;;;;;;;;;;;;29.30;60.00;102547.00;2612492;36;19978;-56
2022/08/10 11:36:43;;;;;;;;;;;;;;;29.63;54.72;102550.66;2612698;36;19946;-57
2022/08/10 11:39:16;;;;;;;;;;;;;;;29.32;53.49;102544.00;2613815;31;20001;-57
2022/08/10 11:41:50;;;;;;;;;;;;;;;29.65;56.21;102549.38;2614113;36;19962;-56
2022/08/10 11:44:28;;;;;;;;;;;;;;;29.94;53.85;102540.63;2613375;36;20316;-58
2022/08/10 11:46:58;;;;;;;;;;;;;;;29.57;51.36;102535.75;2613863;36;20100;-57
2022/08/10 11:49:32;;;;;;;;;;;;;;;29.27;52.42;102536.34;2614990;36;19958;-58
2022/08/10 11:52:05;;;;;;;;;;;;;;;29.04;53.83;102536.00;2613676;36;19969;-58
2022/08/10 11:54:38;;;;;;;;;;;;;;;29.24;54.07;102533.16;2615579;36;19950;-57
2022/08/10 11:57:07;;;;;;;;;;;;;;;28.96;53.55;102535.16;2614286;36;20367;-57
2022/08/10 12:02:23;;;;;;;;;;;;;;;29.19;53.14;102528.25;2607258;36;19974;-57
2022/08/10 12:04:53;;;;;;;;;;;;;;;29.38;53.38;102525.63;2608315;36;19985;-55
2022/08/10 12:07:22;;;;;;;;;;;;;;;29.47;51.64;102524.28;2614507;36;19961;-57
2022/08/10 12:09:51;;;;;;;;;;;;;;;29.02;51.67;102528.75;2614754;36;20474;-57
2022/08/10 12:12:20;;;;;;;;;;;;;;;29.07;51.41;102521.69;2614732;31;19959;-59
2022/08/10 12:14:54;;;;;;;;;;;;;;;29.64;51.38;102522.69;2614712;36;20025;-58
2022/08/10 12:17:25;;;;;;;;;;;;;;;30.03;49.42;102515.13;2614767;36;19998;-57
2022/08/10 12:19:59;;;;;;;;;;;;;;;29.91;49.53;102519.72;2613842;36;20440;-56
2022/08/10 12:22:31;;;;;;;;;;;;;;;29.99;48.21;102518.59;2614409;36;19973;-57
2022/08/10 12:25:00;;;;;;;;;;;;;;;29.99;49.74;102508.34;2614670;36;19989;-58
2022/08/10 12:27:32;;;;;;;;;;;;;;;29.78;49.96;102504.00;2613532;36;19951;-57
2022/08/10 12:30:05;;;;;;;;;;;;;;;29.93;49.46;102505.63;2613354;36;19947;-57
2022/08/10 12:32:37;;;;;;;;;;;;;;;30.00;47.12;102498.94;2613386;31;19950;-56
2022/08/10 12:35:08;;;;;;;;;;;;;;;29.92;46.87;102499.22;2613787;36;20042;-57
2022/08/10 12:37:40;;;;;;;;;;;;;;;30.02;47.27;102499.56;2613660;36;20451;-57
2022/08/10 12:40:13;;;;;;;;;;;;;;;30.04;46.58;102489.06;2611896;31;19970;-56
2022/08/10 12:42:44;;;;;;;;;;;;;;;30.18;46.76;102489.81;2611703;36;19950;-56
2022/08/10 12:45:17;;;;;;;;;;;;;;;30.37;46.47;102492.59;2615065;36;19950;-58
2022/08/10 12:47:49;;;;;;;;;;;;;;;29.85;46.60;102487.34;2615175;36;19991;-57
2022/08/10 12:50:19;;;;;;;;;;;;;;;30.15;46.70;102494.97;2614818;36;19954;-55
2022/08/10 12:52:53;;;;;;;;;;;;;;;30.33;45.30;102491.34;2615506;36;20387;-57
2022/08/10 12:55:22;;;;;;;;;;;;;;;30.38;45.58;102486.81;2614738;31;20379;-57